sensor_id;sensor_type;location;lat;lon;timestamp;temperature;humidity
2523;DHT22;1272;53.332;9.860;2022-10-26T00:00:45;8.00;99.90
2523;DHT22;1272;53.332;9.860;2022-10-26T00:03:11;8.00;99.90
2523;DHT22;1272;53.332;9.860;2022-10-26T00:05:38;8.00;99.90
2523;DHT22;1272;53.332;9.860;2022-10-26T00:08:04;8.00;99.90
2523;DHT22;1272;53.332;9.860;2022-10-26T00:10:33;7.90;99.90
2523;DHT22;1272;53.332;9.860;2022-10-26T00:12:59;7.90;99.90
2523;DHT22;1272;53.332;9.860;2022-10-26T00:15:26;7.80;99.90
2523;DHT22;1272;53.332;9.860;2022-10-26T00:17:52;7.80;99.90
2523;DHT22;1272;53.332;9.860;2022-10-26T00:20:18;7.80;99.90
2523;DHT22;1272;53.332;9.860;2022-10-26T00:22:43;7.80;99.90
2523;DHT22;1272;53.332;9.860;2022-10-26T00:25:09;7.80;99.90
2523;DHT22;1272;53.332;9.860;2022-10-26T00:27:35;7.70;99.90
2523;DHT22;1272;53.332;9.860;2022-10-26T00:30:02;7.60;99.90
2523;DHT22;1272;53.332;9.860;2022-10-26T00:32:28;7.50;99.90
2523;DHT22;1272;53.332;9.860;2022-10-26T00:34:54;7.50;99.90
2523;DHT22;1272;53.332;9.860;2022-10-26T00:37:20;7.50;99.90
2523;DHT22;1272;53.332;9.860;2022-10-26T00:39:46;7.50;99.90
2523;DHT22;1272;53.332;9.860;2022-10-26T00:42:19;7.50;99.90
2523;DHT22;1272;53.332;9.860;2022-10-26T00:47:22;7.50;99.90
2523;DHT22;1272;53.332;9.860;2022-10-26T00:49:53;7.40;99.90
2523;DHT22;1272;53.332;9.860;2022-10-26T00:52:21;7.40;99.90
2523;DHT22;1272;53.332;9.860;2022-10-26T00:54:48;7.50;99.90
2523;DHT22;1272;53.332;9.860;2022-10-26T00:57:14;7.50;99.90
2523;DHT22;1272;53.332;9.860;2022-10-26T00:59:42;7.50;99.90
2523;DHT22;1272;53.332;9.860;2022-10-26T01:02:08;7.40;99.90
2523;DHT22;1272;53.332;9.860;2022-10-26T01:04:34;7.40;99.90
2523;DHT22;1272;53.332;9.860;2022-10-26T01:07:02;7.40;99.90
2523;DHT22;1272;53.332;9.860;2022-10-26T01:09:29;7.30;99.90
2523;DHT22;1272;53.332;9.860;2022-10-26T01:11:54;7.30;99.90
2523;DHT22;1272;53.332;9.860;2022-10-26T01:14:20;7.30;99.90
2523;DHT22;1272;53.332;9.860;2022-10-26T01:17:06;7.30;99.90
2523;DHT22;1272;53.332;9.860;2022-10-26T01:19:57;7.30;99.90
2523;DHT22;1272;53.332;9.860;2022-10-26T01:22:55;7.20;99.90
2523;DHT22;1272;53.332;9.860;2022-10-26T01:31:00;7.20;99.90
2523;DHT22;1272;53.332;9.860;2022-10-26T01:33:41;7.10;99.90
2523;DHT22;1272;53.332;9.860;2022-10-26T01:39:06;7.00;99.90
2523;DHT22;1272;53.332;9.860;2022-10-26T01:41:45;6.90;99.90
2523;DHT22;1272;53.332;9.860;2022-10-26T01:46:44;6.90;99.90
2523;DHT22;1272;53.332;9.860;2022-10-26T01:49:12;6.80;99.90
2523;DHT22;1272;53.332;9.860;2022-10-26T01:51:41;6.90;99.90
2523;DHT22;1272;53.332;9.860;2022-10-26T01:54:07;6.80;99.90
2523;DHT22;1272;53.332;9.860;2022-10-26T01:56:36;6.70;99.90
2523;DHT22;1272;53.332;9.860;2022-10-26T02:10:46;6.70;99.90
2523;DHT22;1272;53.332;9.860;2022-10-26T02:13:15;6.70;99.90
2523;DHT22;1272;53.332;9.860;2022-10-26T02:15:53;6.70;99.90
2523;DHT22;1272;53.332;9.860;2022-10-26T02:18:49;6.70;99.90
2523;DHT22;1272;53.332;9.860;2022-10-26T02:21:21;6.70;99.90
2523;DHT22;1272;53.332;9.860;2022-10-26T02:23:51;6.70;99.90
2523;DHT22;1272;53.332;9.860;2022-10-26T02:26:20;6.60;99.90
2523;DHT22;1272;53.332;9.860;2022-10-26T02:28:50;6.60;99.90
2523;DHT22;1272;53.332;9.860;2022-10-26T02:31:18;6.60;99.90
2523;DHT22;1272;53.332;9.860;2022-10-26T02:33:48;6.50;99.90
2523;DHT22;1272;53.332;9.860;2022-10-26T02:36:23;6.50;99.90
2523;DHT22;1272;53.332;9.860;2022-10-26T02:38:50;6.50;99.90
2523;DHT22;1272;53.332;9.860;2022-10-26T02:41:17;6.50;99.90
2523;DHT22;1272;53.332;9.860;2022-10-26T02:43:56;6.40;99.90
2523;DHT22;1272;53.332;9.860;2022-10-26T02:46:25;6.50;99.90
2523;DHT22;1272;53.332;9.860;2022-10-26T02:48:52;6.50;99.90
2523;DHT22;1272;53.332;9.860;2022-10-26T02:51:28;6.40;99.90
2523;DHT22;1272;53.332;9.860;2022-10-26T02:54:04;6.40;99.90
2523;DHT22;1272;53.332;9.860;2022-10-26T02:56:56;6.50;99.90
2523;DHT22;1272;53.332;9.860;2022-10-26T02:59:22;6.40;99.90
2523;DHT22;1272;53.332;9.860;2022-10-26T03:01:50;6.40;99.90
2523;DHT22;1272;53.332;9.860;2022-10-26T03:04:16;6.40;99.90
2523;DHT22;1272;53.332;9.860;2022-10-26T03:06:50;6.40;99.90
2523;DHT22;1272;53.332;9.860;2022-10-26T03:09:15;6.40;99.90
2523;DHT22;1272;53.332;9.860;2022-10-26T03:11:41;6.40;99.90
2523;DHT22;1272;53.332;9.860;2022-10-26T03:14:07;6.40;99.90
2523;DHT22;1272;53.332;9.860;2022-10-26T03:16:32;6.40;99.90
2523;DHT22;1272;53.332;9.860;2022-10-26T03:18:58;6.40;99.90
2523;DHT22;1272;53.332;9.860;2022-10-26T03:21:23;6.40;99.90
2523;DHT22;1272;53.332;9.860;2022-10-26T03:23:49;6.40;99.90
2523;DHT22;1272;53.332;9.860;2022-10-26T03:26:15;6.40;99.90
2523;DHT22;1272;53.332;9.860;2022-10-26T03:28:42;6.40;99.90
2523;DHT22;1272;53.332;9.860;2022-10-26T03:31:07;6.40;99.90
2523;DHT22;1272;53.332;9.860;2022-10-26T03:33:33;6.40;99.90
2523;DHT22;1272;53.332;9.860;2022-10-26T03:35:58;6.40;99.90
2523;DHT22;1272;53.332;9.860;2022-10-26T03:38:24;6.30;99.90
2523;DHT22;1272;53.332;9.860;2022-10-26T03:40:50;6.30;99.90
2523;DHT22;1272;53.332;9.860;2022-10-26T03:43:16;6.30;99.90
2523;DHT22;1272;53.332;9.860;2022-10-26T03:45:42;6.30;99.90
2523;DHT22;1272;53.332;9.860;2022-10-26T03:48:10;6.20;99.90
2523;DHT22;1272;53.332;9.860;2022-10-26T03:50:39;6.20;99.90
2523;DHT22;1272;53.332;9.860;2022-10-26T03:53:04;6.20;99.90
2523;DHT22;1272;53.332;9.860;2022-10-26T03:55:30;6.20;99.90
2523;DHT22;1272;53.332;9.860;2022-10-26T03:57:56;6.20;99.90
2523;DHT22;1272;53.332;9.860;2022-10-26T04:00:21;6.20;99.90
2523;DHT22;1272;53.332;9.860;2022-10-26T04:02:54;6.20;99.90
2523;DHT22;1272;53.332;9.860;2022-10-26T04:05:20;6.10;99.90
2523;DHT22;1272;53.332;9.860;2022-10-26T04:07:56;6.10;99.90
2523;DHT22;1272;53.332;9.860;2022-10-26T04:10:24;6.10;99.90
2523;DHT22;1272;53.332;9.860;2022-10-26T04:12:50;6.10;99.90
2523;DHT22;1272;53.332;9.860;2022-10-26T04:15:16;6.10;99.90
2523;DHT22;1272;53.332;9.860;2022-10-26T04:17:42;6.10;99.90
2523;DHT22;1272;53.332;9.860;2022-10-26T04:20:08;6.10;99.90
2523;DHT22;1272;53.332;9.860;2022-10-26T04:22:34;6.00;99.90
2523;DHT22;1272;53.332;9.860;2022-10-26T04:25:02;6.00;99.90
2523;DHT22;1272;53.332;9.860;2022-10-26T04:27:27;6.00;99.90
2523;DHT22;1272;53.332;9.860;2022-10-26T04:29:53;6.00;99.90
2523;DHT22;1272;53.332;9.860;2022-10-26T04:32:19;6.00;99.90
2523;DHT22;1272;53.332;9.860;2022-10-26T04:34:45;5.90;99.90
2523;DHT22;1272;53.332;9.860;2022-10-26T04:37:11;5.90;99.90
2523;DHT22;1272;53.332;9.860;2022-10-26T04:39:39;5.90;99.90
2523;DHT22;1272;53.332;9.860;2022-10-26T04:42:05;5.90;99.90
2523;DHT22;1272;53.332;9.860;2022-10-26T04:44:30;5.90;99.90
2523;DHT22;1272;53.332;9.860;2022-10-26T04:46:56;5.90;99.90
2523;DHT22;1272;53.332;9.860;2022-10-26T04:49:22;5.90;99.90
2523;DHT22;1272;53.332;9.860;2022-10-26T04:51:47;5.90;99.90
2523;DHT22;1272;53.332;9.860;2022-10-26T04:54:13;5.90;99.90
2523;DHT22;1272;53.332;9.860;2022-10-26T04:56:39;5.90;99.90
2523;DHT22;1272;53.332;9.860;2022-10-26T04:59:05;5.90;99.90
2523;DHT22;1272;53.332;9.860;2022-10-26T05:01:30;5.90;99.90
2523;DHT22;1272;53.332;9.860;2022-10-26T05:03:56;5.90;99.90
2523;DHT22;1272;53.332;9.860;2022-10-26T05:06:22;5.90;99.90
2523;DHT22;1272;53.332;9.860;2022-10-26T05:08:48;5.80;99.90
2523;DHT22;1272;53.332;9.860;2022-10-26T05:11:14;5.70;99.90
2523;DHT22;1272;53.332;9.860;2022-10-26T05:13:40;5.70;99.90
2523;DHT22;1272;53.332;9.860;2022-10-26T05:16:06;5.70;99.90
2523;DHT22;1272;53.332;9.860;2022-10-26T05:18:32;5.70;99.90
2523;DHT22;1272;53.332;9.860;2022-10-26T05:20:58;5.70;99.90
2523;DHT22;1272;53.332;9.860;2022-10-26T05:23:24;5.70;99.90
2523;DHT22;1272;53.332;9.860;2022-10-26T05:25:50;5.70;99.90
2523;DHT22;1272;53.332;9.860;2022-10-26T05:28:16;5.60;99.90
2523;DHT22;1272;53.332;9.860;2022-10-26T05:30:44;5.60;99.90
2523;DHT22;1272;53.332;9.860;2022-10-26T05:33:11;5.60;99.90
2523;DHT22;1272;53.332;9.860;2022-10-26T05:35:37;5.60;99.90
2523;DHT22;1272;53.332;9.860;2022-10-26T05:38:11;5.60;99.90
2523;DHT22;1272;53.332;9.860;2022-10-26T05:40:38;5.60;99.90
2523;DHT22;1272;53.332;9.860;2022-10-26T05:43:03;5.60;99.90
2523;DHT22;1272;53.332;9.860;2022-10-26T05:45:29;5.60;99.90
2523;DHT22;1272;53.332;9.860;2022-10-26T05:47:55;5.60;99.90
2523;DHT22;1272;53.332;9.860;2022-10-26T05:50:20;5.50;99.90
2523;DHT22;1272;53.332;9.860;2022-10-26T05:52:47;5.50;99.90
2523;DHT22;1272;53.332;9.860;2022-10-26T05:55:15;5.50;99.90
2523;DHT22;1272;53.332;9.860;2022-10-26T05:57:41;5.50;99.90
2523;DHT22;1272;53.332;9.860;2022-10-26T06:00:15;5.50;99.90
2523;DHT22;1272;53.332;9.860;2022-10-26T06:05:34;5.50;99.90
2523;DHT22;1272;53.332;9.860;2022-10-26T06:08:02;5.50;99.90
2523;DHT22;1272;53.332;9.860;2022-10-26T06:10:28;5.40;99.90
2523;DHT22;1272;53.332;9.860;2022-10-26T06:12:53;5.40;99.90
2523;DHT22;1272;53.332;9.860;2022-10-26T06:15:20;5.40;99.90
2523;DHT22;1272;53.332;9.860;2022-10-26T06:18:04;5.40;99.90
2523;DHT22;1272;53.332;9.860;2022-10-26T06:23:43;5.40;99.90
2523;DHT22;1272;53.332;9.860;2022-10-26T06:29:13;5.40;99.90
2523;DHT22;1272;53.332;9.860;2022-10-26T06:31:45;5.40;99.90
2523;DHT22;1272;53.332;9.860;2022-10-26T06:34:22;5.40;99.90
2523;DHT22;1272;53.332;9.860;2022-10-26T06:36:50;5.40;99.90
2523;DHT22;1272;53.332;9.860;2022-10-26T06:39:17;5.40;99.90
2523;DHT22;1272;53.332;9.860;2022-10-26T06:41:44;5.40;99.90
2523;DHT22;1272;53.332;9.860;2022-10-26T06:44:20;5.40;99.90
2523;DHT22;1272;53.332;9.860;2022-10-26T06:50:05;5.40;99.90
2523;DHT22;1272;53.332;9.860;2022-10-26T06:55:42;5.50;99.90
2523;DHT22;1272;53.332;9.860;2022-10-26T06:58:19;5.50;99.90
2523;DHT22;1272;53.332;9.860;2022-10-26T07:00:52;5.60;99.90
2523;DHT22;1272;53.332;9.860;2022-10-26T07:03:18;5.60;99.90
2523;DHT22;1272;53.332;9.860;2022-10-26T07:05:47;5.60;99.90
2523;DHT22;1272;53.332;9.860;2022-10-26T07:08:13;5.70;99.90
2523;DHT22;1272;53.332;9.860;2022-10-26T07:10:39;5.70;99.90
2523;DHT22;1272;53.332;9.860;2022-10-26T07:13:07;5.70;99.90
2523;DHT22;1272;53.332;9.860;2022-10-26T07:15:34;5.80;99.90
2523;DHT22;1272;53.332;9.860;2022-10-26T07:18:01;5.80;99.90
2523;DHT22;1272;53.332;9.860;2022-10-26T07:20:27;5.90;99.90
2523;DHT22;1272;53.332;9.860;2022-10-26T07:22:54;6.10;99.90
2523;DHT22;1272;53.332;9.860;2022-10-26T07:25:21;6.10;99.90
2523;DHT22;1272;53.332;9.860;2022-10-26T07:27:47;6.10;99.90
2523;DHT22;1272;53.332;9.860;2022-10-26T07:30:13;6.10;99.90
2523;DHT22;1272;53.332;9.860;2022-10-26T07:32:39;6.10;99.90
2523;DHT22;1272;53.332;9.860;2022-10-26T07:35:05;6.20;99.90
2523;DHT22;1272;53.332;9.860;2022-10-26T07:37:31;6.30;99.90
2523;DHT22;1272;53.332;9.860;2022-10-26T07:39:56;6.30;99.90
2523;DHT22;1272;53.332;9.860;2022-10-26T07:42:22;6.40;99.90
2523;DHT22;1272;53.332;9.860;2022-10-26T07:44:48;6.50;99.90
2523;DHT22;1272;53.332;9.860;2022-10-26T07:47:14;6.60;99.90
2523;DHT22;1272;53.332;9.860;2022-10-26T07:49:40;6.60;99.90
2523;DHT22;1272;53.332;9.860;2022-10-26T07:52:05;6.70;99.90
2523;DHT22;1272;53.332;9.860;2022-10-26T07:54:31;6.80;99.90
2523;DHT22;1272;53.332;9.860;2022-10-26T07:56:57;6.90;99.90
2523;DHT22;1272;53.332;9.860;2022-10-26T07:59:23;6.90;99.90
2523;DHT22;1272;53.332;9.860;2022-10-26T08:01:49;7.00;99.90
2523;DHT22;1272;53.332;9.860;2022-10-26T08:04:15;7.10;99.90
2523;DHT22;1272;53.332;9.860;2022-10-26T08:06:41;7.20;99.90
2523;DHT22;1272;53.332;9.860;2022-10-26T08:09:06;7.30;99.90
2523;DHT22;1272;53.332;9.860;2022-10-26T08:11:32;7.40;99.90
2523;DHT22;1272;53.332;9.860;2022-10-26T08:14:01;7.60;99.90
2523;DHT22;1272;53.332;9.860;2022-10-26T08:16:27;7.70;99.90
2523;DHT22;1272;53.332;9.860;2022-10-26T08:18:53;7.80;99.90
2523;DHT22;1272;53.332;9.860;2022-10-26T08:21:19;7.90;99.90
2523;DHT22;1272;53.332;9.860;2022-10-26T08:23:44;8.00;99.90
2523;DHT22;1272;53.332;9.860;2022-10-26T08:26:12;8.20;99.90
2523;DHT22;1272;53.332;9.860;2022-10-26T08:28:39;8.40;99.90
2523;DHT22;1272;53.332;9.860;2022-10-26T08:31:05;8.50;99.90
2523;DHT22;1272;53.332;9.860;2022-10-26T08:33:31;8.70;99.90
2523;DHT22;1272;53.332;9.860;2022-10-26T08:36:02;8.80;99.90
2523;DHT22;1272;53.332;9.860;2022-10-26T08:38:28;8.90;99.90
2523;DHT22;1272;53.332;9.860;2022-10-26T08:40:56;9.10;99.90
2523;DHT22;1272;53.332;9.860;2022-10-26T08:43:32;9.20;99.90
2523;DHT22;1272;53.332;9.860;2022-10-26T08:48:43;9.50;99.90
2523;DHT22;1272;53.332;9.860;2022-10-26T08:51:17;9.60;99.90
2523;DHT22;1272;53.332;9.860;2022-10-26T08:56:20;9.80;99.90
2523;DHT22;1272;53.332;9.860;2022-10-26T08:58:57;9.90;99.90
2523;DHT22;1272;53.332;9.860;2022-10-26T09:01:25;10.00;99.90
2523;DHT22;1272;53.332;9.860;2022-10-26T09:03:51;10.20;99.90
2523;DHT22;1272;53.332;9.860;2022-10-26T09:15:13;10.80;99.90
2523;DHT22;1272;53.332;9.860;2022-10-26T09:25:38;11.40;99.90
2523;DHT22;1272;53.332;9.860;2022-10-26T09:28:04;11.50;99.90
2523;DHT22;1272;53.332;9.860;2022-10-26T09:30:35;11.60;99.90
2523;DHT22;1272;53.332;9.860;2022-10-26T09:33:07;11.70;99.90
2523;DHT22;1272;53.332;9.860;2022-10-26T09:36:34;11.80;99.90
2523;DHT22;1272;53.332;9.860;2022-10-26T09:38:56;12.10;99.90
2523;DHT22;1272;53.332;9.860;2022-10-26T09:41:30;12.30;99.90
2523;DHT22;1272;53.332;9.860;2022-10-26T09:44:26;12.40;99.90
2523;DHT22;1272;53.332;9.860;2022-10-26T09:49:43;12.70;99.90
2523;DHT22;1272;53.332;9.860;2022-10-26T09:52:13;12.80;99.90
2523;DHT22;1272;53.332;9.860;2022-10-26T09:54:39;12.90;99.90
2523;DHT22;1272;53.332;9.860;2022-10-26T09:57:09;13.10;99.90
2523;DHT22;1272;53.332;9.860;2022-10-26T09:59:39;13.20;99.90
2523;DHT22;1272;53.332;9.860;2022-10-26T10:02:34;13.30;99.90
2523;DHT22;1272;53.332;9.860;2022-10-26T10:05:00;13.30;99.90
2523;DHT22;1272;53.332;9.860;2022-10-26T10:07:26;13.40;99.90
2523;DHT22;1272;53.332;9.860;2022-10-26T10:10:19;13.40;99.90
2523;DHT22;1272;53.332;9.860;2022-10-26T10:12:47;13.60;99.90
2523;DHT22;1272;53.332;9.860;2022-10-26T10:15:23;13.80;99.90
2523;DHT22;1272;53.332;9.860;2022-10-26T10:17:50;14.00;99.90
2523;DHT22;1272;53.332;9.860;2022-10-26T10:20:28;14.20;99.90
2523;DHT22;1272;53.332;9.860;2022-10-26T10:23:00;14.40;99.90
2523;DHT22;1272;53.332;9.860;2022-10-26T10:25:32;14.40;99.90
2523;DHT22;1272;53.332;9.860;2022-10-26T10:27:58;14.40;99.90
2523;DHT22;1272;53.332;9.860;2022-10-26T10:30:32;14.40;99.90
2523;DHT22;1272;53.332;9.860;2022-10-26T10:33:10;14.50;99.90
2523;DHT22;1272;53.332;9.860;2022-10-26T10:35:45;14.60;99.90
2523;DHT22;1272;53.332;9.860;2022-10-26T10:38:19;14.70;99.90
2523;DHT22;1272;53.332;9.860;2022-10-26T10:40:58;14.80;99.90
2523;DHT22;1272;53.332;9.860;2022-10-26T10:43:25;15.00;99.90
2523;DHT22;1272;53.332;9.860;2022-10-26T10:45:55;15.10;99.90
2523;DHT22;1272;53.332;9.860;2022-10-26T10:48:24;15.20;99.90
2523;DHT22;1272;53.332;9.860;2022-10-26T10:51:03;15.30;99.90
2523;DHT22;1272;53.332;9.860;2022-10-26T10:56:15;15.60;99.90
2523;DHT22;1272;53.332;9.860;2022-10-26T11:07:24;15.90;99.90
2523;DHT22;1272;53.332;9.860;2022-10-26T11:09:52;15.90;99.90
2523;DHT22;1272;53.332;9.860;2022-10-26T11:12:26;15.90;99.90
2523;DHT22;1272;53.332;9.860;2022-10-26T11:15:00;16.00;99.90
2523;DHT22;1272;53.332;9.860;2022-10-26T11:17:31;16.20;99.90
2523;DHT22;1272;53.332;9.860;2022-10-26T11:20:07;16.40;91.60
2523;DHT22;1272;53.332;9.860;2022-10-26T11:22:39;16.60;1.00
2523;DHT22;1272;53.332;9.860;2022-10-26T11:27:48;16.90;1.00
2523;DHT22;1272;53.332;9.860;2022-10-26T11:30:19;16.90;1.00
2523;DHT22;1272;53.332;9.860;2022-10-26T11:35:31;17.10;1.00
2523;DHT22;1272;53.332;9.860;2022-10-26T11:40:54;17.30;99.90
2523;DHT22;1272;53.332;9.860;2022-10-26T11:43:33;17.30;99.90
2523;DHT22;1272;53.332;9.860;2022-10-26T11:46:25;17.30;99.90
2523;DHT22;1272;53.332;9.860;2022-10-26T11:49:22;17.40;5.30
2523;DHT22;1272;53.332;9.860;2022-10-26T11:57:14;17.60;1.00
2523;DHT22;1272;53.332;9.860;2022-10-26T11:59:47;17.50;99.90
2523;DHT22;1272;53.332;9.860;2022-10-26T12:02:24;17.50;1.00
2523;DHT22;1272;53.332;9.860;2022-10-26T12:05:05;17.40;1.00
2523;DHT22;1272;53.332;9.860;2022-10-26T12:07:35;17.20;99.90
2523;DHT22;1272;53.332;9.860;2022-10-26T12:10:06;17.00;99.90
2523;DHT22;1272;53.332;9.860;2022-10-26T12:12:40;17.00;1.00
2523;DHT22;1272;53.332;9.860;2022-10-26T12:18:12;17.20;1.00
2523;DHT22;1272;53.332;9.860;2022-10-26T12:20:56;17.30;1.00
2523;DHT22;1272;53.332;9.860;2022-10-26T12:23:28;17.50;1.00
2523;DHT22;1272;53.332;9.860;2022-10-26T12:29:11;18.00;99.90
2523;DHT22;1272;53.332;9.860;2022-10-26T12:34:13;18.20;1.00
2523;DHT22;1272;53.332;9.860;2022-10-26T12:44:38;18.60;1.00
2523;DHT22;1272;53.332;9.860;2022-10-26T12:47:06;18.50;1.00
2523;DHT22;1272;53.332;9.860;2022-10-26T12:52:47;18.40;1.00
2523;DHT22;1272;53.332;9.860;2022-10-26T12:55:23;18.50;1.00
2523;DHT22;1272;53.332;9.860;2022-10-26T13:09:07;18.00;1.00
2523;DHT22;1272;53.332;9.860;2022-10-26T13:11:43;17.80;16.30
2523;DHT22;1272;53.332;9.860;2022-10-26T13:14:34;17.70;99.90
2523;DHT22;1272;53.332;9.860;2022-10-26T13:17:03;17.60;99.90
2523;DHT22;1272;53.332;9.860;2022-10-26T13:19:39;17.50;1.00
2523;DHT22;1272;53.332;9.860;2022-10-26T13:22:11;17.40;45.20
2523;DHT22;1272;53.332;9.860;2022-10-26T13:24:47;17.40;99.90
2523;DHT22;1272;53.332;9.860;2022-10-26T13:32:38;17.80;99.90
2523;DHT22;1272;53.332;9.860;2022-10-26T13:35:09;17.90;1.00
2523;DHT22;1272;53.332;9.860;2022-10-26T13:37:36;18.10;99.90
2523;DHT22;1272;53.332;9.860;2022-10-26T13:40:06;18.20;99.90
2523;DHT22;1272;53.332;9.860;2022-10-26T13:42:41;18.40;8.00
2523;DHT22;1272;53.332;9.860;2022-10-26T13:45:13;18.40;99.90
2523;DHT22;1272;53.332;9.860;2022-10-26T13:47:50;18.40;99.90
2523;DHT22;1272;53.332;9.860;2022-10-26T13:50:27;18.50;99.90
2523;DHT22;1272;53.332;9.860;2022-10-26T13:52:58;18.40;99.90
2523;DHT22;1272;53.332;9.860;2022-10-26T13:55:29;18.40;42.30
2523;DHT22;1272;53.332;9.860;2022-10-26T14:01:02;18.10;99.90
2523;DHT22;1272;53.332;9.860;2022-10-26T14:03:28;18.10;99.90
2523;DHT22;1272;53.332;9.860;2022-10-26T14:05:54;18.00;1.00
2523;DHT22;1272;53.332;9.860;2022-10-26T14:08:21;17.90;1.00
2523;DHT22;1272;53.332;9.860;2022-10-26T14:10:53;17.80;1.00
2523;DHT22;1272;53.332;9.860;2022-10-26T14:13:23;17.70;25.00
2523;DHT22;1272;53.332;9.860;2022-10-26T14:15:51;17.70;99.90
2523;DHT22;1272;53.332;9.860;2022-10-26T14:18:24;17.70;99.90
2523;DHT22;1272;53.332;9.860;2022-10-26T14:21:00;17.70;99.90
2523;DHT22;1272;53.332;9.860;2022-10-26T14:23:28;17.70;99.90
2523;DHT22;1272;53.332;9.860;2022-10-26T14:25:54;17.70;1.00
2523;DHT22;1272;53.332;9.860;2022-10-26T14:28:45;17.80;99.90
2523;DHT22;1272;53.332;9.860;2022-10-26T14:31:20;17.90;99.90
2523;DHT22;1272;53.332;9.860;2022-10-26T14:33:46;17.80;1.20
2523;DHT22;1272;53.332;9.860;2022-10-26T14:36:13;17.90;86.70
2523;DHT22;1272;53.332;9.860;2022-10-26T14:38:44;17.90;1.00
2523;DHT22;1272;53.332;9.860;2022-10-26T14:41:13;17.90;1.00
2523;DHT22;1272;53.332;9.860;2022-10-26T14:43:43;17.80;1.00
2523;DHT22;1272;53.332;9.860;2022-10-26T14:46:16;17.80;1.00
2523;DHT22;1272;53.332;9.860;2022-10-26T14:48:55;17.70;9.60
2523;DHT22;1272;53.332;9.860;2022-10-26T14:51:27;17.70;54.00
2523;DHT22;1272;53.332;9.860;2022-10-26T14:53:59;17.60;81.10
2523;DHT22;1272;53.332;9.860;2022-10-26T14:59:18;17.40;99.90
2523;DHT22;1272;53.332;9.860;2022-10-26T15:04:36;17.20;1.00
2523;DHT22;1272;53.332;9.860;2022-10-26T15:12:06;17.00;1.00
2523;DHT22;1272;53.332;9.860;2022-10-26T15:14:34;16.90;1.00
2523;DHT22;1272;53.332;9.860;2022-10-26T15:17:00;16.80;51.90
2523;DHT22;1272;53.332;9.860;2022-10-26T15:19:28;16.70;99.90
2523;DHT22;1272;53.332;9.860;2022-10-26T15:21:54;16.70;99.90
2523;DHT22;1272;53.332;9.860;2022-10-26T15:26:46;16.50;99.90
2523;DHT22;1272;53.332;9.860;2022-10-26T15:32:24;16.30;95.40
2523;DHT22;1272;53.332;9.860;2022-10-26T15:37:45;15.90;1.00
2523;DHT22;1272;53.332;9.860;2022-10-26T15:40:12;15.80;99.90
2523;DHT22;1272;53.332;9.860;2022-10-26T15:42:39;15.70;99.90
2523;DHT22;1272;53.332;9.860;2022-10-26T15:45:17;15.50;1.00
2523;DHT22;1272;53.332;9.860;2022-10-26T15:47:44;15.40;1.00
2523;DHT22;1272;53.332;9.860;2022-10-26T15:50:16;15.30;1.00
2523;DHT22;1272;53.332;9.860;2022-10-26T15:52:45;15.20;1.00
2523;DHT22;1272;53.332;9.860;2022-10-26T15:55:11;15.00;40.30
2523;DHT22;1272;53.332;9.860;2022-10-26T15:57:37;14.90;93.50
2523;DHT22;1272;53.332;9.860;2022-10-26T16:00:04;14.80;99.90
2523;DHT22;1272;53.332;9.860;2022-10-26T16:02:35;14.70;99.90
2523;DHT22;1272;53.332;9.860;2022-10-26T16:05:07;14.70;99.90
2523;DHT22;1272;53.332;9.860;2022-10-26T16:07:33;14.60;99.90
2523;DHT22;1272;53.332;9.860;2022-10-26T16:09:58;14.50;99.90
2523;DHT22;1272;53.332;9.860;2022-10-26T16:12:26;14.50;99.90
2523;DHT22;1272;53.332;9.860;2022-10-26T16:14:52;14.40;99.90
2523;DHT22;1272;53.332;9.860;2022-10-26T16:17:18;14.40;99.90
2523;DHT22;1272;53.332;9.860;2022-10-26T16:19:43;14.30;99.90
2523;DHT22;1272;53.332;9.860;2022-10-26T16:22:10;14.20;99.90
2523;DHT22;1272;53.332;9.860;2022-10-26T16:24:35;14.20;99.90
2523;DHT22;1272;53.332;9.860;2022-10-26T16:27:01;14.10;99.90
2523;DHT22;1272;53.332;9.860;2022-10-26T16:29:27;14.00;99.90
2523;DHT22;1272;53.332;9.860;2022-10-26T16:31:52;14.00;99.90
2523;DHT22;1272;53.332;9.860;2022-10-26T16:34:27;13.90;99.90
2523;DHT22;1272;53.332;9.860;2022-10-26T16:36:52;13.80;99.90
2523;DHT22;1272;53.332;9.860;2022-10-26T16:39:18;13.80;99.90
2523;DHT22;1272;53.332;9.860;2022-10-26T16:41:43;13.70;99.90
2523;DHT22;1272;53.332;9.860;2022-10-26T16:44:12;13.70;99.90
2523;DHT22;1272;53.332;9.860;2022-10-26T16:46:43;13.60;99.90
2523;DHT22;1272;53.332;9.860;2022-10-26T16:49:09;13.50;99.90
2523;DHT22;1272;53.332;9.860;2022-10-26T16:51:37;13.50;99.90
2523;DHT22;1272;53.332;9.860;2022-10-26T16:54:03;13.40;99.90
2523;DHT22;1272;53.332;9.860;2022-10-26T16:56:29;13.40;99.90
2523;DHT22;1272;53.332;9.860;2022-10-26T16:58:55;13.30;99.90
2523;DHT22;1272;53.332;9.860;2022-10-26T17:01:22;13.20;99.90
2523;DHT22;1272;53.332;9.860;2022-10-26T17:03:49;13.20;99.90
2523;DHT22;1272;53.332;9.860;2022-10-26T17:06:15;13.20;99.90
2523;DHT22;1272;53.332;9.860;2022-10-26T17:08:44;13.10;99.90
2523;DHT22;1272;53.332;9.860;2022-10-26T17:11:16;13.10;99.90
2523;DHT22;1272;53.332;9.860;2022-10-26T17:13:42;13.00;99.90
2523;DHT22;1272;53.332;9.860;2022-10-26T17:18:40;12.90;99.90
2523;DHT22;1272;53.332;9.860;2022-10-26T17:21:07;12.80;99.90
2523;DHT22;1272;53.332;9.860;2022-10-26T17:23:33;12.70;99.90
2523;DHT22;1272;53.332;9.860;2022-10-26T17:26:06;12.70;99.90
2523;DHT22;1272;53.332;9.860;2022-10-26T17:28:32;12.70;99.90
2523;DHT22;1272;53.332;9.860;2022-10-26T17:31:06;12.60;99.90
2523;DHT22;1272;53.332;9.860;2022-10-26T17:33:36;12.60;99.90
2523;DHT22;1272;53.332;9.860;2022-10-26T17:36:12;12.60;99.90
2523;DHT22;1272;53.332;9.860;2022-10-26T17:38:41;12.50;99.90
2523;DHT22;1272;53.332;9.860;2022-10-26T17:41:09;12.50;99.90
2523;DHT22;1272;53.332;9.860;2022-10-26T17:43:37;12.40;99.90
2523;DHT22;1272;53.332;9.860;2022-10-26T17:46:05;12.40;99.90
2523;DHT22;1272;53.332;9.860;2022-10-26T17:48:32;12.30;99.90
2523;DHT22;1272;53.332;9.860;2022-10-26T17:51:02;12.30;99.90
2523;DHT22;1272;53.332;9.860;2022-10-26T17:53:28;12.30;99.90
2523;DHT22;1272;53.332;9.860;2022-10-26T17:56:10;12.20;99.90
2523;DHT22;1272;53.332;9.860;2022-10-26T17:58:37;12.10;99.90
2523;DHT22;1272;53.332;9.860;2022-10-26T18:01:07;12.10;99.90
2523;DHT22;1272;53.332;9.860;2022-10-26T18:03:37;12.10;99.90
2523;DHT22;1272;53.332;9.860;2022-10-26T18:06:03;12.00;99.90
2523;DHT22;1272;53.332;9.860;2022-10-26T18:08:32;12.00;99.90
2523;DHT22;1272;53.332;9.860;2022-10-26T18:10:58;12.00;99.90
2523;DHT22;1272;53.332;9.860;2022-10-26T18:13:33;12.00;99.90
2523;DHT22;1272;53.332;9.860;2022-10-26T18:16:06;12.00;99.90
2523;DHT22;1272;53.332;9.860;2022-10-26T18:18:33;12.00;99.90
2523;DHT22;1272;53.332;9.860;2022-10-26T18:21:00;11.90;99.90
2523;DHT22;1272;53.332;9.860;2022-10-26T18:23:26;11.90;99.90
2523;DHT22;1272;53.332;9.860;2022-10-26T18:26:03;11.90;99.90
2523;DHT22;1272;53.332;9.860;2022-10-26T18:28:29;11.90;99.90
2523;DHT22;1272;53.332;9.860;2022-10-26T18:31:03;11.80;99.90
2523;DHT22;1272;53.332;9.860;2022-10-26T18:33:29;11.90;99.90
2523;DHT22;1272;53.332;9.860;2022-10-26T18:36:06;11.90;99.90
2523;DHT22;1272;53.332;9.860;2022-10-26T18:38:33;11.90;99.90
2523;DHT22;1272;53.332;9.860;2022-10-26T18:40:59;11.90;99.90
2523;DHT22;1272;53.332;9.860;2022-10-26T18:43:25;11.80;99.90
2523;DHT22;1272;53.332;9.860;2022-10-26T18:45:50;11.80;99.90
2523;DHT22;1272;53.332;9.860;2022-10-26T18:48:17;11.80;99.90
2523;DHT22;1272;53.332;9.860;2022-10-26T18:50:43;11.80;99.90
2523;DHT22;1272;53.332;9.860;2022-10-26T18:53:09;11.80;99.90
2523;DHT22;1272;53.332;9.860;2022-10-26T18:55:38;11.70;99.90
2523;DHT22;1272;53.332;9.860;2022-10-26T18:58:10;11.80;99.90